createdAt,value
2023-03-11T00:01:14.371Z,98199.94
2023-03-11T00:03:43.651Z,98195.41
2023-03-11T00:06:13.173Z,98195.92
2023-03-11T00:08:42.428Z,98191.86
2023-03-11T00:11:11.757Z,98190.19
2023-03-11T00:13:41.111Z,98181.46
2023-03-11T00:16:10.872Z,98179.57
2023-03-11T00:18:40.222Z,98184.93
2023-03-11T00:21:17.025Z,98182.46
2023-03-11T00:23:47.206Z,98176.79
2023-03-11T00:26:16.479Z,98178.77
2023-03-11T00:28:47.982Z,98174.70
2023-03-11T00:31:17.293Z,98174.14
2023-03-11T00:33:46.631Z,98172.34
2023-03-11T00:36:23.873Z,98172.86
2023-03-11T00:38:53.934Z,98165.84
2023-03-11T00:41:23.381Z,98161.39
2023-03-11T00:43:52.689Z,98166.37
2023-03-11T00:46:22.011Z,98171.82
2023-03-11T00:48:52.663Z,98176.46
2023-03-11T00:51:21.923Z,98172.27
2023-03-11T00:53:51.174Z,98169.23
2023-03-11T00:56:21.143Z,98172.36
2023-03-11T00:58:50.474Z,98170.95
2023-03-11T01:01:21.158Z,98163.83
2023-03-11T01:03:50.793Z,98160.92
2023-03-11T01:06:20.066Z,98158.08
2023-03-11T01:08:49.429Z,98156.96
2023-03-11T01:11:19.139Z,98149.80
2023-03-11T01:13:48.516Z,98151.52
2023-03-11T01:16:17.908Z,98155.11
2023-03-11T01:18:47.220Z,98157.77
2023-03-11T01:21:17.215Z,98158.73
2023-03-11T01:23:46.565Z,98151.96
2023-03-11T01:26:16.389Z,98145.70
2023-03-11T01:28:45.679Z,98150.33
2023-03-11T01:31:15.035Z,98152.94
2023-03-11T01:33:44.535Z,98149.65
2023-03-11T01:36:14.655Z,98153.01
2023-03-11T01:38:44.009Z,98152.90
2023-03-11T01:41:13.792Z,98159.44
2023-03-11T01:43:54.350Z,98157.19
2023-03-11T01:46:27.660Z,98155.28
2023-03-11T01:48:59.679Z,98152.50
2023-03-11T01:51:36.077Z,98154.04
2023-03-11T01:54:10.482Z,98158.13
2023-03-11T01:56:41.417Z,98154.81
2023-03-11T01:59:14.519Z,98153.51
2023-03-11T02:01:50.561Z,98156.68
2023-03-11T02:04:21.310Z,98158.28
2023-03-11T02:06:53.695Z,98158.73
2023-03-11T02:09:26.397Z,98162.56
2023-03-11T02:11:56.792Z,98162.38
2023-03-11T02:14:29.390Z,98154.45
2023-03-11T02:16:59.885Z,98156.45
2023-03-11T02:19:37.584Z,98158.59
2023-03-11T02:22:08.128Z,98158.11
2023-03-11T02:24:45.227Z,98168.66
2023-03-11T02:27:17.414Z,98171.71
2023-03-11T02:29:49.617Z,98168.84
2023-03-11T02:32:19.945Z,98173.39
2023-03-11T02:34:49.377Z,98174.36
2023-03-11T02:37:19.466Z,98175.64
2023-03-11T02:40:15.802Z,98178.52
2023-03-11T02:42:45.170Z,98180.92
2023-03-11T02:45:18.481Z,98178.45
2023-03-11T02:47:48.336Z,98177.67
2023-03-11T02:50:18.698Z,98175.33
2023-03-11T02:52:50.245Z,98176.13
2023-03-11T02:55:20.114Z,98177.02
2023-03-11T02:57:49.485Z,98173.95
2023-03-11T03:00:20.617Z,98182.41
2023-03-11T03:02:55.244Z,98189.11
2023-03-11T03:05:25.124Z,98194.17
2023-03-11T03:07:54.521Z,98198.69
2023-03-11T03:10:24.347Z,98196.64
2023-03-11T03:12:53.818Z,98196.59
2023-03-11T03:15:23.124Z,98196.50
2023-03-11T03:17:53.306Z,98197.69
2023-03-11T03:20:22.657Z,98196.08
2023-03-11T03:22:54.348Z,98198.94
2023-03-11T03:25:26.345Z,98205.30
2023-03-11T03:27:56.031Z,98205.22
2023-03-11T03:30:25.586Z,98213.55
2023-03-11T03:32:55.452Z,98213.05
2023-03-11T03:35:24.827Z,98215.67
2023-03-11T03:38:20.320Z,98221.14
2023-03-11T03:40:50.348Z,98225.73
2023-03-11T03:43:21.206Z,98230.83
2023-03-11T03:45:58.433Z,98239.52
2023-03-11T03:48:29.470Z,98241.08
2023-03-11T03:51:04.300Z,98241.84
2023-03-11T03:53:36.076Z,98246.01
2023-03-11T03:56:07.514Z,98246.14
2023-03-11T03:58:38.142Z,98254.52
2023-03-11T04:01:08.351Z,98257.67
2023-03-11T04:03:39.124Z,98259.41
2023-03-11T04:06:18.263Z,98261.20
2023-03-11T04:08:50.690Z,98265.31
2023-03-11T04:11:21.067Z,98263.94
2023-03-11T04:13:51.488Z,98262.80
2023-03-11T04:16:22.807Z,98257.73
2023-03-11T04:18:54.028Z,98259.98
2023-03-11T04:21:24.185Z,98260.77
2023-03-11T04:23:53.612Z,98260.48
2023-03-11T04:26:24.399Z,98262.77
2023-03-11T04:28:53.807Z,98257.70
2023-03-11T04:31:24.072Z,98261.60
2023-03-11T04:33:54.106Z,98260.73
2023-03-11T04:36:24.443Z,98265.94
2023-03-11T04:38:55.535Z,98269.21
2023-03-11T04:41:25.542Z,98274.35
2023-03-11T04:43:54.938Z,98272.52
2023-03-11T04:46:24.528Z,98268.85
2023-03-11T04:48:53.994Z,98270.65
2023-03-11T04:51:23.492Z,98277.63
2023-03-11T04:53:53.020Z,98287.02
2023-03-11T04:56:22.609Z,98287.99
2023-03-11T04:58:52.413Z,98295.17
2023-03-11T05:01:22.608Z,98298.58
2023-03-11T05:03:52.750Z,98301.87
2023-03-11T05:06:22.107Z,98308.76
2023-03-11T05:08:51.520Z,98308.94
2023-03-11T05:11:21.125Z,98311.85
2023-03-11T05:13:50.785Z,98315.93
2023-03-11T05:16:20.775Z,98321.27
2023-03-11T05:18:50.225Z,98325.42
2023-03-11T05:21:20.004Z,98326.39
2023-03-11T05:23:49.476Z,98331.26
2023-03-11T05:26:18.875Z,98334.28
2023-03-11T05:28:49.180Z,98341.41
2023-03-11T05:31:18.542Z,98343.31
2023-03-11T05:33:47.942Z,98342.46
2023-03-11T05:36:17.633Z,98347.60
2023-03-11T05:38:47.553Z,98342.75
2023-03-11T05:41:18.381Z,98351.17
2023-03-11T05:43:48.324Z,98359.15
2023-03-11T05:46:19.451Z,98366.90
2023-03-11T05:48:49.020Z,98373.53
2023-03-11T05:51:18.643Z,98372.37
2023-03-11T05:53:49.509Z,98379.34
2023-03-11T05:56:24.364Z,98375.58
2023-03-11T05:58:56.986Z,98379.85
2023-03-11T06:01:26.385Z,98385.60
2023-03-11T06:03:56.662Z,98391.56
2023-03-11T06:06:26.785Z,98397.20
2023-03-11T06:08:57.465Z,98410.61
2023-03-11T06:11:29.230Z,98415.24
2023-03-11T06:13:59.612Z,98421.61
2023-03-11T06:16:29.901Z,98428.02
2023-03-11T06:19:01.972Z,98429.46
2023-03-11T06:21:34.425Z,98436.10
2023-03-11T06:24:05.381Z,98437.35
2023-03-11T06:26:34.893Z,98439.55
2023-03-11T06:29:04.760Z,98447.65
2023-03-11T06:31:36.604Z,98455.31
2023-03-11T06:34:11.040Z,98466.11
2023-03-11T06:36:40.414Z,98468.23
2023-03-11T06:39:12.119Z,98477.01
2023-03-11T06:41:41.927Z,98477.23
2023-03-11T06:44:12.126Z,98483.19
2023-03-11T06:46:41.580Z,98489.60
2023-03-11T06:49:10.988Z,98496.36
2023-03-11T06:51:40.893Z,98504.52
2023-03-11T06:54:11.414Z,98514.77
2023-03-11T06:56:40.781Z,98520.73
2023-03-11T06:59:10.607Z,98527.04
2023-03-11T07:01:39.902Z,98536.39
2023-03-11T07:04:12.488Z,98544.65
2023-03-11T07:06:43.341Z,98555.06
2023-03-11T07:09:21.735Z,98563.63
2023-03-11T07:11:51.356Z,98572.79
2023-03-11T07:14:26.233Z,98576.45
2023-03-11T07:16:58.072Z,98586.96
2023-03-11T07:19:31.660Z,98595.52
2023-03-11T07:22:01.011Z,98608.14
2023-03-11T07:24:30.358Z,98612.29
2023-03-11T07:26:59.589Z,98619.38
2023-03-11T07:29:29.033Z,98625.08
2023-03-11T07:31:59.391Z,98635.71
2023-03-11T07:34:28.722Z,98642.45
2023-03-11T07:36:58.088Z,98651.65
2023-03-11T07:39:28.471Z,98651.51
2023-03-11T07:41:57.721Z,98660.98
2023-03-11T07:44:33.363Z,98667.34
2023-03-11T07:47:04.124Z,98672.41
2023-03-11T07:49:33.815Z,98679.89
2023-03-11T07:52:03.232Z,98681.61
2023-03-11T07:54:32.533Z,98695.28
2023-03-11T07:57:03.269Z,98701.17
2023-03-11T07:59:32.621Z,98707.00
2023-03-11T08:02:04.353Z,98716.67
2023-03-11T08:04:33.923Z,98719.06
2023-03-11T08:07:03.410Z,98728.00
2023-03-11T08:09:34.656Z,98733.78
2023-03-11T08:12:04.258Z,98739.89
2023-03-11T08:14:33.560Z,98746.98
2023-03-11T08:17:03.961Z,98750.20
2023-03-11T08:19:33.337Z,98759.98
2023-03-11T08:22:04.226Z,98772.48
2023-03-11T08:24:36.184Z,98773.92
2023-03-11T08:27:05.669Z,98774.26
2023-03-11T08:29:36.032Z,98778.98
2023-03-11T08:32:06.739Z,98784.34
2023-03-11T08:34:36.063Z,98792.63
2023-03-11T08:37:05.667Z,98805.82
2023-03-11T08:39:34.922Z,98818.04
2023-03-11T08:42:04.566Z,98818.66
2023-03-11T08:44:34.491Z,98827.05
2023-03-11T08:47:03.892Z,98833.93
2023-03-11T08:49:33.573Z,98840.52
2023-03-11T08:52:03.425Z,98847.30
2023-03-11T08:54:33.121Z,98850.16
2023-03-11T08:57:04.212Z,98855.58
2023-03-11T08:59:33.517Z,98869.23
2023-03-11T09:02:02.941Z,98869.36
2023-03-11T09:04:32.275Z,98874.06
2023-03-11T09:07:01.611Z,98879.20
2023-03-11T09:09:30.921Z,98889.29
2023-03-11T09:12:00.193Z,98894.95
2023-03-11T09:14:29.547Z,98901.35
2023-03-11T09:16:58.879Z,98905.77
2023-03-11T09:19:28.093Z,98914.92
2023-03-11T09:21:59.524Z,98920.92
2023-03-11T09:24:29.633Z,98923.59
2023-03-11T09:26:58.906Z,98934.96
2023-03-11T09:29:28.181Z,98944.77
2023-03-11T09:31:57.664Z,98957.28
2023-03-11T09:34:27.028Z,98966.08
2023-03-11T09:36:56.403Z,98969.25
2023-03-11T09:39:25.843Z,98973.83
2023-03-11T09:41:58.856Z,98982.63
2023-03-11T09:44:37.489Z,98995.18
2023-03-11T09:47:30.987Z,98997.70
2023-03-11T09:50:14.570Z,99008.02
2023-03-11T09:52:51.552Z,99016.67
2023-03-11T09:55:33.383Z,99018.59
2023-03-11T09:58:10.759Z,99024.45
2023-03-11T10:00:41.020Z,99033.44
2023-03-11T10:03:26.051Z,99041.79
2023-03-11T10:06:02.929Z,99042.05
2023-03-11T10:08:39.125Z,99052.86
2023-03-11T10:11:20.071Z,99060.29
2023-03-11T10:13:57.770Z,99066.45
2023-03-11T10:16:38.034Z,99065.69
2023-03-11T10:19:15.787Z,99073.83
2023-03-11T10:21:54.153Z,99076.11
2023-03-11T10:24:40.936Z,99084.43
2023-03-11T10:27:16.097Z,99092.18
2023-03-11T10:29:55.049Z,99097.56
2023-03-11T10:32:31.414Z,99101.48
2023-03-11T10:35:07.236Z,99108.41
2023-03-11T10:37:49.854Z,99109.85
2023-03-11T10:40:26.642Z,99120.93
2023-03-11T10:42:58.915Z,99137.30
2023-03-11T10:45:37.984Z,99133.41
2023-03-11T10:48:12.384Z,99142.88
2023-03-11T10:50:50.115Z,99147.98
2023-03-11T10:53:21.300Z,99149.58
2023-03-11T10:55:52.962Z,99160.83
2023-03-11T10:58:24.720Z,99163.41
2023-03-11T11:01:07.867Z,99164.44
2023-03-11T11:03:41.630Z,99173.09
2023-03-11T11:06:21.772Z,99174.27
2023-03-11T11:09:05.893Z,99181.48
2023-03-11T11:11:35.935Z,99180.84
2023-03-11T11:14:05.809Z,99178.72
2023-03-11T11:16:35.833Z,99191.80
2023-03-11T11:19:09.031Z,99191.80
2023-03-11T11:21:40.157Z,99202.23
2023-03-11T11:24:19.900Z,99203.12
2023-03-11T11:27:13.840Z,99204.59
2023-03-11T11:29:43.487Z,99209.25
2023-03-11T11:32:20.397Z,99209.10
2023-03-11T11:35:00.772Z,99211.86
2023-03-11T11:37:32.568Z,99216.86
2023-03-11T11:40:11.293Z,99216.27
2023-03-11T11:42:46.169Z,99217.46
2023-03-11T11:45:22.764Z,99225.38
2023-03-11T11:47:56.637Z,99229.94
2023-03-11T11:50:32.105Z,99235.67
2023-03-11T11:53:13.181Z,99240.16
2023-03-11T11:55:47.542Z,99235.23
2023-03-11T11:58:17.417Z,99244.11
2023-03-11T12:00:58.302Z,99244.93
2023-03-11T12:03:45.076Z,99248.80
2023-03-11T12:06:21.774Z,99251.02
2023-03-11T12:09:04.951Z,99256.61
2023-03-11T12:11:42.149Z,99267.09
2023-03-11T12:14:18.755Z,99261.48
2023-03-11T12:16:56.371Z,99270.95
2023-03-11T12:19:37.608Z,99287.13
2023-03-11T12:22:42.666Z,99283.11
2023-03-11T12:25:32.182Z,99294.97
2023-03-11T12:28:12.915Z,99299.69
2023-03-11T12:30:45.803Z,99309.15
2023-03-11T12:33:21.320Z,99305.34
2023-03-11T12:35:55.398Z,99313.27
2023-03-11T12:38:32.843Z,99319.05
2023-03-11T12:41:05.612Z,99324.89
2023-03-11T12:44:00.312Z,99344.74
2023-03-11T12:47:10.620Z,99350.60
2023-03-11T12:49:43.450Z,99360.60
2023-03-11T12:52:25.856Z,99357.94
2023-03-11T12:55:33.182Z,99365.81
2023-03-11T12:58:36.217Z,99372.10
2023-03-11T13:01:29.856Z,99381.59
2023-03-11T13:04:16.404Z,99390.88
2023-03-11T13:07:04.103Z,99394.02
2023-03-11T13:09:33.739Z,99402.89
2023-03-11T13:12:03.408Z,99402.52
2023-03-11T13:14:33.557Z,99407.39
2023-03-11T13:17:30.384Z,99414.80
2023-03-11T13:19:59.983Z,99422.21
2023-03-11T13:23:15.065Z,99428.60
2023-03-11T13:26:02.521Z,99434.67
2023-03-11T13:28:56.921Z,99436.99
2023-03-11T13:31:42.004Z,99438.38
2023-03-11T13:34:21.539Z,99440.82
2023-03-11T13:37:05.115Z,99446.66
2023-03-11T13:39:46.176Z,99457.95
2023-03-11T13:42:22.108Z,99463.53
2023-03-11T13:44:51.915Z,99465.08
2023-03-11T13:47:22.628Z,99470.09
2023-03-11T13:49:59.707Z,99472.09
2023-03-11T13:52:34.454Z,99481.85
2023-03-11T13:55:07.741Z,99487.84
2023-03-11T13:57:38.071Z,99491.79
2023-03-11T14:00:17.126Z,99491.31
2023-03-11T14:02:54.571Z,99498.06
2023-03-11T14:05:26.916Z,99501.34
2023-03-11T14:08:11.233Z,99504.34
2023-03-11T14:10:41.258Z,99510.20
2023-03-11T14:13:18.942Z,99515.26
2023-03-11T14:15:55.209Z,99519.30
2023-03-11T14:18:33.534Z,99524.14
2023-03-11T14:21:04.178Z,99526.13
2023-03-11T14:23:39.997Z,99528.95
2023-03-11T14:26:13.055Z,99536.48
2023-03-11T14:28:45.108Z,99547.61
2023-03-11T14:31:29.362Z,99548.41
2023-03-11T14:34:03.801Z,99560.89
2023-03-11T14:36:42.820Z,99564.95
2023-03-11T14:39:26.535Z,99566.32
2023-03-11T14:41:59.598Z,99571.99
2023-03-11T14:44:30.959Z,99581.67
2023-03-11T14:47:07.199Z,99582.13
2023-03-11T14:49:37.659Z,99595.05
2023-03-11T14:52:18.795Z,99589.50
2023-03-11T14:54:49.543Z,99600.20
2023-03-11T14:57:25.787Z,99607.70
2023-03-11T14:59:57.203Z,99611.61
2023-03-11T15:02:37.410Z,99613.90
2023-03-11T15:05:14.392Z,99616.90
2023-03-11T15:07:45.653Z,99618.27
2023-03-11T15:10:16.052Z,99624.98
2023-03-11T15:12:52.298Z,99625.44
2023-03-11T15:15:27.647Z,99631.84
2023-03-11T15:17:58.652Z,99636.30
2023-03-11T15:20:31.463Z,99638.27
2023-03-11T15:23:02.623Z,99641.97
2023-03-11T15:25:34.585Z,99642.11
2023-03-11T15:28:23.680Z,99646.21
2023-03-11T15:31:13.067Z,99653.09
2023-03-11T15:33:42.525Z,99654.12
2023-03-11T15:36:33.111Z,99658.45
2023-03-11T15:39:15.057Z,99658.78
2023-03-11T15:41:46.342Z,99663.67
2023-03-11T15:44:30.681Z,99666.61
2023-03-11T15:47:00.435Z,99673.44
2023-03-11T15:49:30.684Z,99677.02
2023-03-11T15:52:00.879Z,99681.73
2023-03-11T15:54:30.580Z,99687.86
2023-03-11T15:57:01.120Z,99692.75
2023-03-11T15:59:31.409Z,99693.98
2023-03-11T16:02:01.124Z,99697.54
2023-03-11T16:04:30.559Z,99701.56
2023-03-11T16:07:07.788Z,99707.77
2023-03-11T16:09:37.915Z,99714.69
2023-03-11T16:12:15.873Z,99720.97
2023-03-11T16:14:45.485Z,99723.16
2023-03-11T16:17:15.793Z,99726.17
2023-03-11T16:19:47.439Z,99733.46
2023-03-11T16:22:21.508Z,99736.23
2023-03-11T16:24:53.334Z,99739.33
2023-03-11T16:27:23.098Z,99739.44
2023-03-11T16:29:52.488Z,99743.09
2023-03-11T16:32:21.849Z,99746.75
2023-03-11T16:34:51.531Z,99753.66
2023-03-11T16:37:20.868Z,99759.72
2023-03-11T16:39:50.243Z,99761.05
2023-03-11T16:42:23.487Z,99768.36
2023-03-11T16:44:53.184Z,99771.95
2023-03-11T16:47:22.482Z,99776.02
2023-03-11T16:49:52.989Z,99777.94
2023-03-11T16:52:22.894Z,99782.69
2023-03-11T16:54:52.272Z,99789.27
2023-03-11T16:57:21.660Z,99791.98
2023-03-11T16:59:51.986Z,99794.91
2023-03-11T17:02:24.344Z,99798.33
2023-03-11T17:04:54.186Z,99798.09
2023-03-11T17:07:24.148Z,99803.46
2023-03-11T17:09:53.541Z,99808.64
2023-03-11T17:12:22.911Z,99811.95
2023-03-11T17:14:53.057Z,99815.98
2023-03-11T17:17:23.121Z,99821.02
2023-03-11T17:19:52.370Z,99823.74
2023-03-11T17:22:21.618Z,99823.29
2023-03-11T17:24:50.951Z,99829.13
2023-03-11T17:27:20.307Z,99829.88
2023-03-11T17:29:49.636Z,99835.15
2023-03-11T17:32:20.891Z,99835.61
2023-03-11T17:34:50.545Z,99841.80
2023-03-11T17:37:20.632Z,99846.83
2023-03-11T17:39:50.414Z,99847.56
2023-03-11T17:42:19.782Z,99849.77
2023-03-11T17:44:52.007Z,99851.36
2023-03-11T17:47:25.388Z,99851.05
2023-03-11T17:49:54.892Z,99853.17
2023-03-11T17:52:24.382Z,99854.88
2023-03-11T17:54:55.921Z,99863.49
2023-03-11T17:57:25.369Z,99867.59
2023-03-11T17:59:54.733Z,99870.73
2023-03-11T18:02:24.021Z,99876.84
2023-03-11T18:04:53.437Z,99880.66
2023-03-11T18:07:23.267Z,99887.24
2023-03-11T18:09:53.471Z,99891.38
2023-03-11T18:12:22.886Z,99895.88
2023-03-11T18:14:52.254Z,99899.65
2023-03-11T18:17:21.523Z,99903.71
2023-03-11T18:19:50.820Z,99905.96
2023-03-11T18:22:20.189Z,99907.81
2023-03-11T18:24:49.502Z,99908.70
2023-03-11T18:27:18.879Z,99916.56
2023-03-11T18:29:48.175Z,99916.92
2023-03-11T18:32:17.613Z,99922.84
2023-03-11T18:34:50.977Z,99921.02
2023-03-11T18:37:20.406Z,99924.60
2023-03-11T18:39:49.738Z,99929.23
2023-03-11T18:42:19.070Z,99927.25
2023-03-11T18:44:48.361Z,99932.11
2023-03-11T18:47:17.666Z,99932.55
2023-03-11T18:49:46.923Z,99932.99
2023-03-11T18:52:16.240Z,99939.20
2023-03-11T18:54:45.686Z,99942.35
2023-03-11T18:57:15.042Z,99947.69
2023-03-11T18:59:44.430Z,99951.08
2023-03-11T19:02:13.755Z,99956.59
2023-03-11T19:04:43.196Z,99958.73
2023-03-11T19:07:12.771Z,99962.67
2023-03-11T19:09:42.543Z,99967.16
2023-03-11T19:12:12.065Z,99970.95
2023-03-11T19:14:41.794Z,99970.41
2023-03-11T19:17:12.409Z,99973.58
2023-03-11T19:19:42.137Z,99976.44
2023-03-11T19:22:11.436Z,99974.65
2023-03-11T19:24:41.048Z,99976.92
2023-03-11T19:27:10.356Z,99979.38
2023-03-11T19:29:39.693Z,99983.38
2023-03-11T19:32:09.020Z,99984.95
2023-03-11T19:34:39.387Z,99994.23
2023-03-11T19:37:08.802Z,99993.89
2023-03-11T19:39:38.341Z,100001.20
2023-03-11T19:42:07.812Z,100002.70
2023-03-11T19:44:37.495Z,100003.27
2023-03-11T19:47:06.924Z,100005.09
2023-03-11T19:49:36.361Z,100005.06
2023-03-11T19:52:09.250Z,100007.90
2023-03-11T19:54:39.212Z,100007.38
2023-03-11T19:57:08.913Z,100011.18
2023-03-11T19:59:38.342Z,100008.30
2023-03-11T20:02:10.530Z,100010.40
2023-03-11T20:04:43.043Z,100015.41
2023-03-11T20:07:12.666Z,100017.77
2023-03-11T20:09:43.006Z,100017.14
2023-03-11T20:12:12.399Z,100018.48
2023-03-11T20:14:42.700Z,100016.52
2023-03-11T20:17:13.535Z,100015.20
2023-03-11T20:19:42.927Z,100014.96
2023-03-11T20:22:12.623Z,100013.91
2023-03-11T20:24:42.113Z,100011.96
2023-03-11T20:27:11.482Z,100012.98
2023-03-11T20:29:40.758Z,100019.39
2023-03-11T20:32:10.178Z,100021.27
2023-03-11T20:34:39.583Z,100024.66
2023-03-11T20:37:08.992Z,100028.29
2023-03-11T20:39:40.044Z,100029.65
2023-03-11T20:42:09.453Z,100030.00
2023-03-11T20:44:38.975Z,100028.27
2023-03-11T20:47:08.422Z,100026.59
2023-03-11T20:49:37.866Z,100031.40
2023-03-11T20:52:07.224Z,100028.75
2023-03-11T20:54:36.689Z,100033.57
2023-03-11T20:57:06.042Z,100032.12
2023-03-11T20:59:35.427Z,100032.35
2023-03-11T21:02:06.004Z,100031.66
2023-03-11T21:04:41.201Z,100032.29
2023-03-11T21:07:10.735Z,100033.65
2023-03-11T21:09:40.357Z,100031.92
2023-03-11T21:12:09.857Z,100029.65
2023-03-11T21:14:39.850Z,100029.94
2023-03-11T21:17:09.182Z,100031.84
2023-03-11T21:19:38.738Z,100033.65
2023-03-11T21:22:08.074Z,100027.32
2023-03-11T21:24:37.531Z,100029.82
2023-03-11T21:27:07.068Z,100025.49
2023-03-11T21:29:37.261Z,100022.50
2023-03-11T21:32:07.318Z,100021.30
2023-03-11T21:34:36.586Z,100025.23
2023-03-11T21:37:05.887Z,100024.88
2023-03-11T21:39:35.260Z,100026.91
2023-03-11T21:42:05.114Z,100023.49
2023-03-11T21:44:34.397Z,100031.71
2023-03-11T21:47:03.980Z,100031.59
2023-03-11T21:49:33.397Z,100032.17
2023-03-11T21:52:03.019Z,100032.63
2023-03-11T21:54:32.440Z,100030.52
2023-03-11T21:57:01.872Z,100030.05
2023-03-11T21:59:31.410Z,100026.19
2023-03-11T22:02:02.491Z,100027.67
2023-03-11T22:04:32.156Z,100026.10
2023-03-11T22:07:01.532Z,100024.21
2023-03-11T22:09:30.898Z,100021.23
2023-03-11T22:12:00.242Z,100019.86
2023-03-11T22:14:29.533Z,100014.77
2023-03-11T22:16:58.831Z,100010.00
2023-03-11T22:19:28.229Z,100006.48
2023-03-11T22:21:57.699Z,100001.13
2023-03-11T22:24:26.930Z,100001.80
2023-03-11T22:26:56.214Z,100006.00
2023-03-11T22:29:25.511Z,100007.76
2023-03-11T22:31:54.900Z,100010.65
2023-03-11T22:34:24.175Z,100010.41
2023-03-11T22:36:53.453Z,100010.25
2023-03-11T22:39:22.702Z,100009.53
2023-03-11T22:41:51.989Z,100008.58
2023-03-11T22:44:21.427Z,100007.96
2023-03-11T22:46:50.894Z,100006.29
2023-03-11T22:49:20.161Z,100004.05
2023-03-11T22:51:49.401Z,100002.11
2023-03-11T22:54:18.679Z,100007.04
2023-03-11T22:56:47.988Z,100006.49
2023-03-11T22:59:17.182Z,100006.34
2023-03-11T23:01:46.516Z,100009.26
2023-03-11T23:04:15.820Z,100008.25
2023-03-11T23:06:45.100Z,100001.21
2023-03-11T23:09:14.398Z,99997.45
2023-03-11T23:11:43.602Z,99997.69
2023-03-11T23:14:12.923Z,99997.74
2023-03-11T23:16:42.297Z,99988.19
2023-03-11T23:19:12.291Z,99988.75
2023-03-11T23:21:41.598Z,99984.95
2023-03-11T23:24:11.015Z,99982.14
2023-03-11T23:26:40.249Z,99985.23
2023-03-11T23:29:09.526Z,99984.55
2023-03-11T23:31:38.749Z,99986.05
2023-03-11T23:34:08.288Z,99980.58
2023-03-11T23:36:37.516Z,99972.12
2023-03-11T23:39:06.770Z,99969.05
2023-03-11T23:41:37.399Z,99969.21
2023-03-11T23:44:06.705Z,99970.42
2023-03-11T23:46:36.043Z,99975.79
2023-03-11T23:49:05.398Z,99974.70
2023-03-11T23:51:34.629Z,99975.86
2023-03-11T23:54:03.991Z,99974.16
2023-03-11T23:56:33.374Z,99972.23
2023-03-11T23:59:02.625Z,99971.40
